createdAt,value
2023-03-22T00:00:30.302Z,93.87
2023-03-22T00:02:59.681Z,93.84
2023-03-22T00:05:27.610Z,94.05
2023-03-22T00:07:58.459Z,93.75
2023-03-22T00:10:27.605Z,93.86
2023-03-22T00:12:56.371Z,93.45
2023-03-22T00:15:26.884Z,94.15
2023-03-22T00:17:55.594Z,93.85
2023-03-22T00:20:25.014Z,93.71
2023-03-22T00:22:53.953Z,93.62
2023-03-22T00:25:21.861Z,93.58
2023-03-22T00:27:50.233Z,93.51
2023-03-22T00:30:19.183Z,93.31
2023-03-22T00:32:47.205Z,93.21
2023-03-22T00:35:15.333Z,92.94
2023-03-22T00:37:45.771Z,93.50
2023-03-22T00:40:15.109Z,93.40
2023-03-22T00:42:44.570Z,93.32
2023-03-22T00:45:14.025Z,93.17
2023-03-22T00:47:42.189Z,93.37
2023-03-22T00:50:11.178Z,93.46
2023-03-22T00:52:40.227Z,93.11
2023-03-22T00:55:10.136Z,93.40
2023-03-22T00:57:38.617Z,93.26
2023-03-22T01:00:13.628Z,93.26
2023-03-22T01:02:42.604Z,93.25
2023-03-22T01:05:16.589Z,93.40
2023-03-22T01:07:45.089Z,93.76
2023-03-22T01:10:14.653Z,93.46
2023-03-22T01:12:43.292Z,93.65
2023-03-22T01:15:12.351Z,93.42
2023-03-22T01:17:41.127Z,93.63
2023-03-22T01:20:11.747Z,93.67
2023-03-22T01:22:40.589Z,93.44
2023-03-22T01:25:09.483Z,93.31
2023-03-22T01:27:40.213Z,93.38
2023-03-22T01:30:08.684Z,93.68
2023-03-22T01:32:37.889Z,93.60
2023-03-22T01:35:06.948Z,93.44
2023-03-22T01:37:35.708Z,93.62
2023-03-22T01:40:04.342Z,93.99
2023-03-22T01:42:33.933Z,93.69
2023-03-22T01:45:41.213Z,94.18
2023-03-22T01:48:17.500Z,94.10
2023-03-22T01:50:50.700Z,94.08
2023-03-22T01:53:24.077Z,94.40
2023-03-22T01:55:56.252Z,94.56
2023-03-22T01:58:35.388Z,94.33
2023-03-22T02:01:08.653Z,94.00
2023-03-22T02:03:50.076Z,94.34
2023-03-22T02:06:18.524Z,94.07
2023-03-22T02:08:53.543Z,94.18
2023-03-22T02:11:30.738Z,94.11
2023-03-22T02:14:27.357Z,94.36
2023-03-22T02:17:15.491Z,93.85
2023-03-22T02:20:20.550Z,94.22
2023-03-22T02:23:07.314Z,93.86
2023-03-22T02:26:05.454Z,93.97
2023-03-22T02:28:43.756Z,94.07
2023-03-22T02:31:38.835Z,94.02
2023-03-22T02:34:38.880Z,94.18
2023-03-22T02:37:52.392Z,94.17
2023-03-22T02:40:33.052Z,94.34
2023-03-22T02:43:15.181Z,94.36
2023-03-22T02:45:48.245Z,94.34
2023-03-22T02:48:20.415Z,94.38
2023-03-22T02:50:54.578Z,94.58
2023-03-22T02:53:31.284Z,94.22
2023-03-22T02:56:03.332Z,94.39
2023-03-22T02:58:37.477Z,94.32
2023-03-22T03:01:09.781Z,94.44
2023-03-22T03:03:40.997Z,94.52
2023-03-22T03:06:13.617Z,94.56
2023-03-22T03:08:43.836Z,95.00
2023-03-22T03:11:14.533Z,95.19
2023-03-22T03:13:48.770Z,95.37
2023-03-22T03:16:18.888Z,95.54
2023-03-22T03:18:56.005Z,95.57
2023-03-22T03:21:36.107Z,95.91
2023-03-22T03:24:21.143Z,95.90
2023-03-22T03:26:57.407Z,95.89
2023-03-22T03:29:36.649Z,95.71
2023-03-22T03:32:10.727Z,95.70
2023-03-22T03:34:46.179Z,95.91
2023-03-22T03:37:18.966Z,96.13
2023-03-22T03:39:58.250Z,95.74
2023-03-22T03:42:31.528Z,95.44
2023-03-22T03:45:03.499Z,95.24
2023-03-22T03:47:32.968Z,95.28
2023-03-22T03:50:01.332Z,94.98
2023-03-22T03:52:31.884Z,95.01
2023-03-22T03:55:00.909Z,95.05
2023-03-22T03:57:39.072Z,94.81
2023-03-22T04:00:10.192Z,94.56
2023-03-22T04:03:07.436Z,94.79
2023-03-22T04:06:03.897Z,94.59
2023-03-22T04:08:38.355Z,94.91
2023-03-22T04:11:08.075Z,94.68
2023-03-22T04:13:39.433Z,94.50
2023-03-22T04:16:15.394Z,94.41
2023-03-22T04:18:44.614Z,94.40
2023-03-22T04:21:16.546Z,94.78
2023-03-22T04:23:52.781Z,94.71
2023-03-22T04:26:22.742Z,95.05
2023-03-22T04:29:09.573Z,94.77
2023-03-22T04:31:45.070Z,95.10
2023-03-22T04:34:33.038Z,95.07
2023-03-22T04:37:12.563Z,94.88
2023-03-22T04:40:02.493Z,94.75
2023-03-22T04:42:52.614Z,94.53
2023-03-22T04:45:32.520Z,94.73
2023-03-22T04:48:08.264Z,94.52
2023-03-22T04:50:42.972Z,94.51
2023-03-22T04:53:13.353Z,94.53
2023-03-22T04:55:42.980Z,94.42
2023-03-22T04:58:11.656Z,94.46
2023-03-22T05:00:43.094Z,94.10
2023-03-22T05:03:13.370Z,94.24
2023-03-22T05:05:53.359Z,94.05
2023-03-22T05:08:25.934Z,94.30
2023-03-22T05:11:22.807Z,94.27
2023-03-22T05:14:09.819Z,94.10
2023-03-22T05:16:41.525Z,94.20
2023-03-22T05:19:14.180Z,94.24
2023-03-22T05:21:58.803Z,94.37
2023-03-22T05:24:49.436Z,94.40
2023-03-22T05:27:31.937Z,94.55
2023-03-22T05:30:18.400Z,94.76
2023-03-22T05:33:00.636Z,94.65
2023-03-22T05:35:29.430Z,94.78
2023-03-22T05:37:58.973Z,94.87
2023-03-22T05:40:31.963Z,95.35
2023-03-22T05:43:02.295Z,95.21
2023-03-22T05:45:33.264Z,94.90
2023-03-22T05:48:16.995Z,95.07
2023-03-22T05:50:46.571Z,95.26
2023-03-22T05:53:14.989Z,95.44
2023-03-22T05:56:01.423Z,95.30
2023-03-22T05:58:51.875Z,95.48
2023-03-22T06:01:23.801Z,95.23
2023-03-22T06:04:12.618Z,94.84
2023-03-22T06:06:55.376Z,94.66
2023-03-22T06:09:45.069Z,94.26
2023-03-22T06:12:32.429Z,94.40
2023-03-22T06:15:10.150Z,94.34
2023-03-22T06:17:57.112Z,94.02
2023-03-22T06:20:32.792Z,93.66
2023-03-22T06:23:07.448Z,93.55
2023-03-22T06:25:40.472Z,93.69
2023-03-22T06:28:13.188Z,92.92
2023-03-22T06:30:49.609Z,92.75
2023-03-22T06:33:41.132Z,92.63
2023-03-22T06:36:25.040Z,92.36
2023-03-22T06:39:08.039Z,92.12
2023-03-22T06:41:39.164Z,92.28
2023-03-22T06:44:08.293Z,91.99
2023-03-22T06:46:53.608Z,92.07
2023-03-22T06:49:44.802Z,91.29
2023-03-22T06:52:27.936Z,91.19
2023-03-22T06:54:58.001Z,91.11
2023-03-22T06:57:29.140Z,90.91
2023-03-22T07:00:00.807Z,90.89
2023-03-22T07:02:29.381Z,90.95
2023-03-22T07:05:33.368Z,90.96
2023-03-22T07:08:04.646Z,90.72
2023-03-22T07:10:38.581Z,91.18
2023-03-22T07:13:08.084Z,90.82
2023-03-22T07:15:37.848Z,90.82
2023-03-22T07:18:15.836Z,90.82
2023-03-22T07:20:47.282Z,90.18
2023-03-22T07:23:18.616Z,90.53
2023-03-22T07:25:52.056Z,90.57
2023-03-22T07:28:30.014Z,90.45
2023-03-22T07:31:03.183Z,90.41
2023-03-22T07:33:38.237Z,90.42
2023-03-22T07:36:10.077Z,90.03
2023-03-22T07:38:41.094Z,90.40
2023-03-22T07:41:15.499Z,89.93
2023-03-22T07:44:17.915Z,90.21
2023-03-22T07:47:01.885Z,90.35
2023-03-22T07:49:39.203Z,90.33
2023-03-22T07:52:31.093Z,90.07
2023-03-22T07:55:02.053Z,89.78
2023-03-22T07:57:30.429Z,89.95
2023-03-22T08:00:02.523Z,89.74
2023-03-22T08:02:57.378Z,90.45
2023-03-22T08:05:45.271Z,90.13
2023-03-22T08:08:16.794Z,89.90
2023-03-22T08:10:52.141Z,90.11
2023-03-22T08:13:21.139Z,88.93
2023-03-22T08:15:49.311Z,89.42
2023-03-22T08:18:21.274Z,89.21
2023-03-22T08:20:56.291Z,88.77
2023-03-22T08:23:41.369Z,88.46
2023-03-22T08:26:24.277Z,88.73
2023-03-22T08:28:54.401Z,88.05
2023-03-22T08:31:25.209Z,88.34
2023-03-22T08:33:53.514Z,87.12
2023-03-22T08:36:23.834Z,86.97
2023-03-22T08:39:01.960Z,87.47
2023-03-22T08:41:45.486Z,87.05
2023-03-22T08:44:15.740Z,86.91
2023-03-22T08:46:44.129Z,86.76
2023-03-22T08:49:17.546Z,86.41
2023-03-22T08:51:58.702Z,85.64
2023-03-22T08:54:43.606Z,85.88
2023-03-22T08:57:34.096Z,84.89
2023-03-22T09:00:33.978Z,84.23
2023-03-22T09:03:16.417Z,84.95
2023-03-22T09:05:45.624Z,83.20
2023-03-22T09:08:20.084Z,83.38
2023-03-22T09:10:53.440Z,83.88
2023-03-22T09:13:26.831Z,82.68
2023-03-22T09:16:02.602Z,83.61
2023-03-22T09:18:37.721Z,82.94
2023-03-22T09:21:18.139Z,82.84
2023-03-22T09:23:56.906Z,82.95
2023-03-22T09:26:42.009Z,82.49
2023-03-22T09:29:13.760Z,82.20
2023-03-22T09:31:43.903Z,81.54
2023-03-22T09:34:20.142Z,81.26
2023-03-22T09:36:52.912Z,79.80
2023-03-22T09:39:27.909Z,79.37
2023-03-22T09:42:03.059Z,79.20
2023-03-22T09:44:36.372Z,80.30
2023-03-22T09:47:14.828Z,80.60
2023-03-22T09:49:53.815Z,79.86
2023-03-22T09:52:23.091Z,80.28
2023-03-22T09:54:53.526Z,80.41
2023-03-22T09:57:29.591Z,79.49
2023-03-22T10:00:15.594Z,78.72
2023-03-22T10:03:04.031Z,79.96
2023-03-22T10:05:40.064Z,80.42
2023-03-22T10:08:38.465Z,80.42
2023-03-22T10:11:20.705Z,79.46
2023-03-22T10:14:00.271Z,79.34
2023-03-22T10:16:35.860Z,79.76
2023-03-22T10:19:11.290Z,79.38
2023-03-22T10:21:40.480Z,78.51
2023-03-22T10:24:14.207Z,78.84
2023-03-22T10:26:45.943Z,78.29
2023-03-22T10:29:24.595Z,77.45
2023-03-22T10:31:59.158Z,77.87
2023-03-22T10:34:33.906Z,77.54
2023-03-22T10:37:06.186Z,77.30
2023-03-22T10:39:39.839Z,76.95
2023-03-22T10:42:13.814Z,76.81
2023-03-22T10:44:49.909Z,76.73
2023-03-22T10:47:27.813Z,76.46
2023-03-22T10:49:59.789Z,76.13
2023-03-22T10:52:39.594Z,76.77
2023-03-22T10:55:15.283Z,75.16
2023-03-22T10:57:49.659Z,75.90
2023-03-22T11:00:19.977Z,74.14
2023-03-22T11:02:55.136Z,73.74
2023-03-22T11:05:28.721Z,74.12
2023-03-22T11:07:58.904Z,73.60
2023-03-22T11:10:32.851Z,73.84
2023-03-22T11:13:21.578Z,73.70
2023-03-22T11:15:59.815Z,73.39
2023-03-22T11:18:32.531Z,73.62
2023-03-22T11:21:03.504Z,73.87
2023-03-22T11:23:34.436Z,73.73
2023-03-22T11:26:10.355Z,72.21
2023-03-22T11:28:44.921Z,70.87
2023-03-22T11:31:19.124Z,72.89
2023-03-22T11:34:04.551Z,72.32
2023-03-22T11:39:17.439Z,73.48
2023-03-22T11:41:47.109Z,73.22
2023-03-22T11:44:19.476Z,73.51
2023-03-22T11:46:56.253Z,71.76
2023-03-22T11:49:36.192Z,72.40
2023-03-22T11:52:13.454Z,73.81
2023-03-22T11:54:44.963Z,72.92
2023-03-22T11:57:17.287Z,72.82
2023-03-22T11:59:56.476Z,72.83
2023-03-22T12:02:28.232Z,73.44
2023-03-22T12:05:06.701Z,72.76
2023-03-22T12:07:38.748Z,72.76
2023-03-22T12:10:14.929Z,72.20
2023-03-22T12:12:50.510Z,72.42
2023-03-22T12:15:24.087Z,72.36
2023-03-22T12:17:58.746Z,73.16
2023-03-22T12:20:39.916Z,72.52
2023-03-22T12:23:17.016Z,72.44
2023-03-22T12:25:52.683Z,73.28
2023-03-22T12:28:30.705Z,71.62
2023-03-22T12:31:01.021Z,72.39
2023-03-22T12:33:33.002Z,72.02
2023-03-22T12:36:05.329Z,72.16
2023-03-22T12:38:42.376Z,71.15
2023-03-22T12:41:13.855Z,72.00
2023-03-22T12:43:50.236Z,71.76
2023-03-22T12:46:23.566Z,71.84
2023-03-22T12:48:57.114Z,70.94
2023-03-22T12:51:26.603Z,70.56
2023-03-22T12:53:58.987Z,70.62
2023-03-22T12:56:30.017Z,70.86
2023-03-22T12:59:04.155Z,72.79
2023-03-22T13:01:36.535Z,72.79
2023-03-22T13:04:32.204Z,73.47
2023-03-22T13:07:16.656Z,74.86
2023-03-22T13:09:47.925Z,75.24
2023-03-22T13:12:34.914Z,76.23
2023-03-22T13:15:41.230Z,76.71
2023-03-22T13:18:33.018Z,78.65
2023-03-22T13:21:16.332Z,77.86
2023-03-22T13:24:00.740Z,78.70
2023-03-22T13:26:36.842Z,80.18
2023-03-22T13:29:14.480Z,79.01
2023-03-22T13:31:51.765Z,78.63
2023-03-22T13:34:22.000Z,78.34
2023-03-22T13:36:55.365Z,77.83
2023-03-22T13:39:28.236Z,78.33
2023-03-22T13:42:11.132Z,77.04
2023-03-22T13:44:43.068Z,76.77
2023-03-22T13:47:35.110Z,77.83
2023-03-22T13:50:07.384Z,77.64
2023-03-22T13:52:49.660Z,77.30
2023-03-22T13:55:41.611Z,77.17
2023-03-22T13:58:14.808Z,76.87
2023-03-22T14:00:53.074Z,78.26
2023-03-22T14:03:30.656Z,75.85
2023-03-22T14:06:07.335Z,76.53
2023-03-22T14:08:39.109Z,75.03
2023-03-22T14:11:30.326Z,75.64
2023-03-22T14:14:04.891Z,75.39
2023-03-22T14:16:41.490Z,74.44
2023-03-22T14:19:21.056Z,75.25
